Time;durP1;ratioP1;P1;durP2;ratioP2;P2;SDS_P1;SDS_P2;PMS_P1;PMS_P2;Temp;Humidity;BMP_temperature;BMP_pressure;BME280_temperature;BME280_humidity;BME280_pressure;Samples;Min_cycle;Max_cycle;Signal;HPM_P1;HPM_P2
2021/05/14 00:02:16;;;;;;;13.30;4.05;;;;;;;12.03;82.94;98850.35;125501;1099;22756;-62
2021/05/14 00:04:44;;;;;;;10.67;3.63;;;;;;;12.05;83.21;98858.98;125608;1104;24607;-62
2021/05/14 00:07:13;;;;;;;14.10;4.33;;;;;;;12.03;83.12;98855.19;125621;1100;22888;-62
2021/05/14 00:09:42;;;;;;;11.83;3.97;;;;;;;12.03;82.96;98861.54;125708;1098;27288;-63
2021/05/14 00:12:11;;;;;;;11.05;3.40;;;;;;;12.00;83.40;98854.18;125544;1104;22828;-62
2021/05/14 00:14:40;;;;;;;11.00;3.20;;;;;;;11.98;83.52;98853.20;125804;1099;27319;-62
2021/05/14 00:17:09;;;;;;;13.45;4.00;;;;;;;11.97;83.22;98857.27;125629;1104;22926;-61
2021/05/14 00:19:38;;;;;;;12.37;3.60;;;;;;;11.95;83.32;98855.00;125492;1104;22913;-61
2021/05/14 00:22:06;;;;;;;11.00;3.15;;;;;;;11.95;83.66;98854.23;125530;1104;22760;-62
2021/05/14 00:24:35;;;;;;;12.93;3.63;;;;;;;11.94;83.49;98847.11;125530;1100;26289;-61
2021/05/14 00:27:05;;;;;;;12.17;3.90;;;;;;;11.94;83.50;98852.70;125541;1099;26366;-61
2021/05/14 00:29:34;;;;;;;12.60;3.73;;;;;;;11.93;83.51;98859.59;125759;1099;27317;-64
2021/05/14 00:32:02;;;;;;;13.15;4.10;;;;;;;11.92;83.61;98856.03;125519;1104;22783;-61
2021/05/14 00:34:31;;;;;;;15.90;4.65;;;;;;;11.91;83.71;98851.73;125709;1100;26372;-61
2021/05/14 00:37:00;;;;;;;12.43;4.17;;;;;;;11.92;83.63;98856.03;125499;1104;24412;-63
2021/05/14 00:39:29;;;;;;;15.67;5.90;;;;;;;11.93;83.56;98857.56;125399;1105;22876;-62
2021/05/14 00:41:58;;;;;;;15.50;5.75;;;;;;;11.95;83.68;98860.59;125617;1099;27180;-62
2021/05/14 00:44:29;;;;;;;13.45;4.50;;;;;;;11.95;83.66;98860.59;125500;1104;22829;-61
2021/05/14 00:46:59;;;;;;;15.87;5.30;;;;;;;11.95;83.73;98863.39;125721;1100;26344;-61
2021/05/14 00:49:27;;;;;;;13.13;5.53;;;;;;;11.92;83.48;98856.03;126057;1104;22763;-61
2021/05/14 00:51:58;;;;;;;15.85;5.68;;;;;;;11.93;83.78;98859.59;125705;1098;26280;-61
2021/05/14 00:54:29;;;;;;;13.35;4.88;;;;;;;11.93;83.81;98862.39;125515;1104;22785;-63
2021/05/14 00:56:59;;;;;;;15.45;5.65;;;;;;;11.91;83.17;98860.13;125581;1104;24432;-62
2021/05/14 00:59:28;;;;;;;14.57;5.37;;;;;;;11.92;83.89;98863.66;125723;1099;22812;-62
2021/05/14 01:01:58;;;;;;;14.55;5.33;;;;;;;11.90;83.71;98857.83;125500;1104;22760;-63
2021/05/14 01:04:26;;;;;;;15.50;4.95;;;;;;;11.89;83.94;98864.72;125486;1104;22777;-62
2021/05/14 01:06:55;;;;;;;14.83;4.87;;;;;;;11.88;83.69;98865.98;125488;1099;26222;-61
2021/05/14 01:09:26;;;;;;;15.70;5.95;;;;;;;11.86;83.83;98866.52;125486;1100;26218;-62
2021/05/14 01:11:54;;;;;;;12.20;4.55;;;;;;;11.85;84.06;98865.01;125655;1104;25551;-63
2021/05/14 01:14:24;;;;;;;14.15;4.85;;;;;;;11.84;83.94;98868.30;125564;1104;25587;-62
2021/05/14 01:16:52;;;;;;;14.07;4.20;;;;;;;11.83;84.22;98866.80;125736;1104;22951;-62
2021/05/14 01:19:22;;;;;;;11.80;3.30;;;;;;;11.83;84.21;98866.80;125778;1104;22753;-62
2021/05/14 01:21:52;;;;;;;10.58;3.90;;;;;;;11.80;84.25;98863.00;125863;1104;22762;-63
2021/05/14 01:24:20;;;;;;;15.38;5.65;;;;;;;11.79;84.18;98860.73;125811;1104;22753;-63
2021/05/14 01:26:50;;;;;;;12.57;3.90;;;;;;;11.79;84.26;98869.13;125779;1104;24598;-62
2021/05/14 01:29:19;;;;;;;13.57;4.73;;;;;;;11.78;84.01;98862.77;125839;1104;22774;-64
2021/05/14 01:31:47;;;;;;;13.50;4.85;;;;;;;11.79;84.20;98863.53;125730;1104;22943;-62
2021/05/14 01:34:16;;;;;;;13.57;4.10;;;;;;;11.76;84.33;98858.97;125672;1100;22822;-61
2021/05/14 01:36:45;;;;;;;11.10;3.40;;;;;;;11.73;84.47;98857.97;125653;1104;22894;-62
2021/05/14 01:39:16;;;;;;;13.10;4.30;;;;;;;11.74;84.02;98853.14;125657;1104;22766;-62
2021/05/14 01:41:45;;;;;;;12.00;3.60;;;;;;;11.73;84.80;98854.44;125614;1104;22764;-64
2021/05/14 01:44:13;;;;;;;15.40;4.15;;;;;;;11.71;84.95;98863.31;125664;1104;22774;-62
2021/05/14 01:46:42;;;;;;;11.95;3.55;;;;;;;11.69;84.80;98848.36;125690;1104;22792;-62
2021/05/14 01:49:11;;;;;;;13.20;4.60;;;;;;;11.67;84.71;98851.66;125711;1104;22851;-63
2021/05/14 01:51:39;;;;;;;12.65;4.15;;;;;;;11.67;84.69;98843.27;125729;1100;26249;-62
2021/05/14 01:54:08;;;;;;;14.07;4.47;;;;;;;11.65;84.69;98843.01;125619;1104;22926;-62
2021/05/14 01:56:37;;;;;;;12.55;4.70;;;;;;;11.64;85.10;98851.92;125659;1104;22750;-62
2021/05/14 01:59:06;;;;;;;13.65;4.35;;;;;;;11.61;84.93;98847.39;125737;1099;27227;-63
2021/05/14 02:01:35;;;;;;;11.70;3.97;;;;;;;11.60;85.16;98846.62;125645;1104;24467;-62
2021/05/14 02:04:04;;;;;;;13.70;4.37;;;;;;;11.59;85.03;98855.50;125703;1099;26923;-63
2021/05/14 02:06:33;;;;;;;11.70;3.87;;;;;;;11.60;85.19;98854.23;125765;1104;22774;-62
2021/05/14 02:09:01;;;;;;;13.43;3.57;;;;;;;11.60;85.11;98852.20;125733;1104;24179;-62
2021/05/14 02:11:30;;;;;;;12.07;4.00;;;;;;;11.60;85.03;98855.00;125679;1104;22866;-62
2021/05/14 02:13:58;;;;;;;17.30;5.23;;;;;;;11.63;85.11;98858.80;125665;1104;22751;-62
2021/05/14 02:16:27;;;;;;;13.20;3.75;;;;;;;11.62;84.80;98858.03;125690;1104;22748;-62
2021/05/14 02:18:56;;;;;;;13.97;4.40;;;;;;;11.63;84.91;98861.59;125707;1104;22770;-62
2021/05/14 02:21:24;;;;;;;12.95;4.30;;;;;;;11.64;84.85;98855.48;125644;1104;22777;-62
2021/05/14 02:23:53;;;;;;;11.80;3.50;;;;;;;11.64;85.15;98868.69;125660;1104;22760;-63
2021/05/14 02:26:22;;;;;;;12.77;4.07;;;;;;;11.63;85.18;98867.92;125661;1104;24196;-63
2021/05/14 02:28:50;;;;;;;13.95;4.05;;;;;;;11.62;84.95;98860.83;125927;1105;24416;-62
2021/05/14 02:31:19;;;;;;;12.05;3.55;;;;;;;11.62;85.37;98866.42;126430;1104;22781;-62
2021/05/14 02:33:48;;;;;;;14.23;4.60;;;;;;;11.60;84.86;98860.59;125985;1104;23686;-61
2021/05/14 02:36:17;;;;;;;14.70;4.77;;;;;;;11.61;84.81;98862.09;125706;1104;22819;-62
2021/05/14 02:38:45;;;;;;;13.40;4.40;;;;;;;11.63;84.68;98864.39;125724;1104;22774;-62
2021/05/14 02:41:14;;;;;;;14.07;3.83;;;;;;;11.61;84.74;98867.69;125603;1104;22777;-63
2021/05/14 02:43:43;;;;;;;13.35;3.55;;;;;;;11.60;84.93;98871.77;125657;1104;22809;-63
2021/05/14 02:46:12;;;;;;;13.00;3.13;;;;;;;11.59;84.90;98875.83;125680;1104;22798;-62
2021/05/14 02:48:41;;;;;;;11.40;3.67;;;;;;;11.60;85.12;98868.21;125751;1104;22754;-62
2021/05/14 02:51:09;;;;;;;14.45;3.70;;;;;;;11.60;84.84;98877.36;125662;1104;22907;-62
2021/05/14 02:53:38;;;;;;;17.23;3.70;;;;;;;11.58;85.03;98874.33;125708;1104;22929;-62
2021/05/14 02:56:07;;;;;;;11.90;3.30;;;;;;;11.58;84.92;98874.33;125648;1104;22822;-63
2021/05/14 02:58:35;;;;;;;11.00;3.10;;;;;;;11.58;84.88;98882.72;125738;1104;25747;-63
2021/05/14 03:01:05;;;;;;;11.83;3.80;;;;;;;11.59;85.09;98880.66;125652;1104;22806;-63
2021/05/14 03:03:36;;;;;;;13.63;3.17;;;;;;;11.61;84.84;98884.45;125739;1104;22756;-63
2021/05/14 03:06:05;;;;;;;11.85;3.20;;;;;;;11.62;85.12;98888.78;125605;1100;22774;-62
2021/05/14 03:08:35;;;;;;;12.17;2.13;;;;;;;11.63;85.05;98890.28;125846;1105;22745;-62
2021/05/14 03:11:04;;;;;;;10.28;3.33;;;;;;;11.63;84.83;98890.28;125712;1104;24448;-63
2021/05/14 03:13:33;;;;;;;13.70;3.30;;;;;;;11.63;84.77;98890.28;125804;1104;22954;-62
2021/05/14 03:16:02;;;;;;;12.75;3.25;;;;;;;11.63;84.84;98890.28;125705;1104;22794;-62
2021/05/14 03:18:31;;;;;;;13.47;3.33;;;;;;;11.63;84.74;98884.70;125761;1104;22761;-61
2021/05/14 03:21:00;;;;;;;11.37;3.37;;;;;;;11.63;84.91;98881.90;125696;1104;23710;-63
2021/05/14 03:23:28;;;;;;;12.40;3.40;;;;;;;11.66;85.16;98894.09;125647;1104;22929;-62
2021/05/14 03:25:57;;;;;;;13.93;3.43;;;;;;;11.66;84.90;98896.88;125656;1104;22926;-62
2021/05/14 03:28:26;;;;;;;13.30;3.60;;;;;;;11.67;84.97;98896.39;125705;1104;22818;-62
2021/05/14 03:30:55;;;;;;;13.73;2.87;;;;;;;11.69;84.71;98898.69;125844;1104;22754;-62
2021/05/14 03:33:23;;;;;;;16.05;3.80;;;;;;;11.70;84.85;98900.19;125775;1104;22767;-63
2021/05/14 03:35:53;;;;;;;11.50;3.03;;;;;;;11.70;84.65;98898.16;125709;1100;26448;-63
2021/05/14 03:38:28;;;;;;;12.73;3.50;;;;;;;11.72;84.64;98901.19;125748;1104;22819;-63
2021/05/14 03:40:57;;;;;;;11.27;3.27;;;;;;;11.73;84.84;98905.49;125647;1100;27617;-63
2021/05/14 03:43:25;;;;;;;17.40;3.20;;;;;;;11.74;84.60;98903.46;125697;1098;25890;-62
2021/05/14 03:45:54;;;;;;;11.33;3.20;;;;;;;11.77;84.75;98911.56;125674;1104;22750;-62
2021/05/14 03:48:23;;;;;;;11.60;2.80;;;;;;;11.77;84.61;98908.77;125707;1098;27645;-63
2021/05/14 03:50:53;;;;;;;11.67;2.83;;;;;;;11.77;84.11;98905.97;125762;1104;22761;-62
2021/05/14 03:53:22;;;;;;;12.45;3.00;;;;;;;11.78;84.32;98910.30;125771;1100;22777;-62
2021/05/14 03:55:51;;;;;;;10.30;3.00;;;;;;;11.77;84.33;98911.56;125711;1100;22800;-63
2021/05/14 03:58:20;;;;;;;9.85;2.60;;;;;;;11.77;84.67;98911.56;125660;1104;22756;-62
2021/05/14 04:00:49;;;;;;;9.90;2.30;;;;;;;11.76;84.43;98912.09;125673;1104;22774;-63
2021/05/14 04:03:20;;;;;;;8.97;2.13;;;;;;;11.74;84.26;98909.05;125632;1104;22838;-63
2021/05/14 04:05:49;;;;;;;9.55;2.45;;;;;;;11.75;84.37;98913.38;125657;1104;22818;-62
2021/05/14 04:08:18;;;;;;;9.70;2.60;;;;;;;11.72;84.07;98915.17;125683;1104;22849;-62
2021/05/14 04:11:02;;;;;;;11.37;3.47;;;;;;;11.74;84.31;98909.05;125823;1104;22850;-62
2021/05/14 04:16:19;;;;;;;9.70;2.40;;;;;;;11.72;84.17;98914.41;125682;1104;22750;-62
2021/05/14 04:18:48;;;;;;;13.60;3.45;;;;;;;11.70;84.33;98920.52;125683;1104;22951;-63
2021/05/14 04:21:17;;;;;;;7.67;2.40;;;;;;;11.70;84.48;98914.93;125935;1104;22829;-61
2021/05/14 04:23:45;;;;;;;7.70;2.65;;;;;;;11.71;84.29;98915.70;126029;1104;22746;-62
2021/05/14 04:26:14;;;;;;;10.63;2.30;;;;;;;11.72;84.24;98917.20;126100;1099;27324;-62
2021/05/14 04:28:42;;;;;;;9.75;2.80;;;;;;;11.71;84.20;98915.70;126162;1104;22758;-62
2021/05/14 04:31:11;;;;;;;9.90;2.73;;;;;;;11.69;84.40;98907.80;126066;1100;22897;-68
2021/05/14 04:33:40;;;;;;;7.87;2.20;;;;;;;11.68;84.35;98920.28;126158;1100;22786;-62
2021/05/14 04:36:09;;;;;;;10.15;3.10;;;;;;;11.68;84.34;98916.72;126170;1104;22750;-62
2021/05/14 04:38:38;;;;;;;8.05;2.85;;;;;;;11.69;84.28;98921.05;126093;1104;22754;-62
2021/05/14 04:41:07;;;;;;;9.85;2.90;;;;;;;11.70;84.53;98917.73;126000;1100;25755;-63
2021/05/14 04:43:35;;;;;;;10.17;2.40;;;;;;;11.70;84.58;98914.93;126111;1104;22856;-62
2021/05/14 04:46:04;;;;;;;8.35;2.80;;;;;;;11.70;84.47;98922.55;125909;1105;22750;-61
2021/05/14 04:48:33;;;;;;;10.95;3.10;;;;;;;11.71;84.21;98924.09;125787;1100;25720;-62
2021/05/14 04:51:01;;;;;;;9.30;2.55;;;;;;;11.70;84.14;98926.11;125960;1105;22910;-62
2021/05/14 04:53:31;;;;;;;10.05;2.60;;;;;;;11.71;84.36;98929.67;125984;1104;23642;-62
2021/05/14 04:56:00;;;;;;;8.93;2.30;;;;;;;11.71;84.30;98924.82;125907;1104;22790;-60
2021/05/14 04:58:29;;;;;;;11.20;2.60;;;;;;;11.73;84.01;98933.45;126132;1100;23520;-57
2021/05/14 05:00:58;;;;;;;8.65;2.35;;;;;;;11.76;83.94;98937.25;126004;1100;22779;-58
2021/05/14 05:03:27;;;;;;;9.93;2.10;;;;;;;11.73;83.84;98935.51;125874;1100;22764;-58
2021/05/14 05:05:57;;;;;;;8.23;2.70;;;;;;;11.73;83.99;98941.84;125882;1098;27182;-58
2021/05/14 05:08:26;;;;;;;5.95;1.80;;;;;;;11.73;83.90;98946.69;126175;1104;22760;-59
2021/05/14 05:10:56;;;;;;;12.40;3.00;;;;;;;11.73;84.16;98941.09;126131;1104;22781;-58
2021/05/14 05:13:24;;;;;;;11.00;2.50;;;;;;;11.75;83.97;98947.67;126152;1104;22731;-58
2021/05/14 05:15:54;;;;;;;10.10;2.60;;;;;;;11.74;84.02;98948.20;126043;1104;22912;-59
2021/05/14 05:18:22;;;;;;;14.05;3.48;;;;;;;11.75;84.01;98942.08;125987;1104;22742;-58
2021/05/14 05:20:54;;;;;;;9.70;2.45;;;;;;;11.77;84.24;98944.38;126020;1104;22768;-58
2021/05/14 05:23:22;;;;;;;10.70;2.85;;;;;;;11.79;83.96;98961.39;126030;1104;22717;-59
2021/05/14 05:25:51;;;;;;;10.10;2.85;;;;;;;11.78;83.74;98951.47;126016;1104;22731;-58
2021/05/14 05:28:23;;;;;;;8.47;2.20;;;;;;;11.76;83.66;98951.23;125809;1104;22919;-60
2021/05/14 05:30:51;;;;;;;9.40;2.25;;;;;;;11.76;83.69;98952.00;126015;1100;28054;-61
2021/05/14 05:33:20;;;;;;;10.47;2.40;;;;;;;11.80;83.43;98965.69;125957;1104;22760;-60
2021/05/14 05:35:49;;;;;;;7.65;1.60;;;;;;;11.80;83.74;98968.48;125896;1099;26172;-58
2021/05/14 05:38:19;;;;;;;6.53;2.03;;;;;;;11.80;83.83;98962.89;125818;1104;22735;-66
2021/05/14 05:40:49;;;;;;;5.95;1.68;;;;;;;11.82;83.92;98969.49;125976;1104;22738;-60
2021/05/14 05:43:18;;;;;;;6.88;1.58;;;;;;;11.85;83.67;98971.27;125890;1104;22769;-63
2021/05/14 05:45:47;;;;;;;6.83;1.83;;;;;;;11.87;83.61;98965.15;125645;1104;22774;-60
2021/05/14 05:48:17;;;;;;;7.50;1.55;;;;;;;11.87;83.23;98968.71;125555;1104;22777;-59
2021/05/14 05:50:45;;;;;;;5.97;1.73;;;;;;;11.88;83.38;98978.61;125570;1098;25957;-56
2021/05/14 05:53:15;;;;;;;6.95;1.75;;;;;;;11.89;83.50;98973.78;125490;1104;22738;-58
2021/05/14 05:55:46;;;;;;;7.83;1.65;;;;;;;11.89;83.60;98982.94;125684;1100;26258;-58
2021/05/14 05:58:17;;;;;;;6.70;1.50;;;;;;;11.91;83.30;98982.41;125423;1100;22777;-59
2021/05/14 06:00:49;;;;;;;9.17;1.50;;;;;;;11.91;83.40;98980.38;127200;1100;26258;-59
2021/05/14 06:03:18;;;;;;;7.03;1.47;;;;;;;11.91;83.37;98985.20;125574;1104;22774;-60
2021/05/14 06:05:49;;;;;;;6.05;1.40;;;;;;;11.94;83.33;98989.75;125690;1098;24451;-59
2021/05/14 06:08:19;;;;;;;5.78;1.58;;;;;;;11.95;83.26;98991.28;125457;1098;25992;-59
2021/05/14 06:10:51;;;;;;;6.50;1.25;;;;;;;11.97;83.05;98997.88;125469;1105;22766;-58
2021/05/14 06:13:20;;;;;;;8.20;1.40;;;;;;;11.97;83.13;98997.11;125693;1099;27676;-58
2021/05/14 06:15:51;;;;;;;4.43;1.33;;;;;;;11.99;82.94;99003.72;125496;1099;26909;-59
2021/05/14 06:18:22;;;;;;;3.15;0.85;;;;;;;12.03;82.79;98997.83;125612;1105;22789;-58
2021/05/14 06:20:54;;;;;;;4.85;1.00;;;;;;;12.09;82.84;99002.12;125442;1104;24479;-59
2021/05/14 06:23:25;;;;;;;4.05;0.90;;;;;;;12.14;82.69;99001.33;125464;1104;22838;-57
2021/05/14 06:25:59;;;;;;;9.55;1.00;;;;;;;12.19;82.89;98997.72;125571;1105;22778;-61
2021/05/14 06:28:29;;;;;;;5.05;1.25;;;;;;;12.25;82.89;99000.47;125717;1104;22929;-60
2021/05/14 06:30:59;;;;;;;6.68;1.05;;;;;;;12.29;82.67;99000.20;125901;1104;22822;-60
2021/05/14 06:33:28;;;;;;;4.63;1.23;;;;;;;12.29;82.49;99003.73;126298;1104;26019;-59
2021/05/14 06:36:01;;;;;;;5.63;0.90;;;;;;;12.32;82.06;99010.34;126260;1099;27278;-60
2021/05/14 06:38:30;;;;;;;6.70;0.90;;;;;;;12.34;81.87;99010.58;125802;1099;25555;-58
2021/05/14 06:41:00;;;;;;;3.57;0.80;;;;;;;12.37;82.19;99012.34;125719;1104;22778;-59
2021/05/14 06:43:29;;;;;;;;;;;;;;;12.40;81.99;99011.29;125845;1104;25581;-59
2021/05/14 06:46:01;;;;;;;4.40;1.05;;;;;;;12.39;81.81;99010.55;125758;1104;21477;-59
2021/05/14 06:48:30;;;;;;;3.47;0.83;;;;;;;12.44;82.20;99012.53;125798;1099;26347;-57
2021/05/14 06:50:59;;;;;;;3.70;0.90;;;;;;;12.44;81.44;99026.52;125741;1104;22758;-59
2021/05/14 06:53:27;;;;;;;4.90;0.90;;;;;;;12.43;81.61;99016.63;125795;1104;22990;-59
2021/05/14 06:56:00;;;;;;;2.90;0.90;;;;;;;12.45;81.20;99027.30;125802;1099;26289;-60
2021/05/14 06:58:31;;;;;;;6.15;1.20;;;;;;;12.47;81.56;99042.30;125946;1104;22802;-60
2021/05/14 07:01:03;;;;;;;7.10;1.30;;;;;;;12.50;81.19;99040.47;125930;1104;22767;-57
2021/05/14 07:03:32;;;;;;;5.20;1.20;;;;;;;12.51;81.28;99039.20;125902;1099;25748;-59
2021/05/14 07:06:02;;;;;;;8.80;1.30;;;;;;;12.51;81.25;99044.80;125751;1104;23293;-59
2021/05/14 07:08:31;;;;;;;5.87;1.10;;;;;;;12.49;81.25;99050.92;126091;1099;25892;-58
2021/05/14 07:11:00;;;;;;;7.20;1.50;;;;;;;12.49;81.25;99047.36;125748;1105;22735;-58
2021/05/14 07:13:29;;;;;;;6.20;0.98;;;;;;;12.48;81.40;99052.20;126132;1104;22754;-59
2021/05/14 07:15:59;;;;;;;5.43;1.07;;;;;;;12.47;81.11;99052.72;126017;1104;22813;-58
2021/05/14 07:18:27;;;;;;;;;;;;;;;12.46;81.15;99054.75;125779;1104;22743;-59
2021/05/14 07:20:57;;;;;;;7.73;0.83;;;;;;;12.47;81.40;99049.92;125684;1100;25778;-60
2021/05/14 07:23:26;;;;;;;5.48;1.10;;;;;;;12.48;81.05;99054.23;125910;1105;22812;-60
2021/05/14 07:25:55;;;;;;;5.65;1.15;;;;;;;12.47;80.88;99061.89;126225;1104;22608;-59
2021/05/14 07:28:23;;;;;;;3.30;0.80;;;;;;;12.49;80.60;99058.56;125886;1104;22876;-59
2021/05/14 07:30:52;;;;;;;5.10;0.95;;;;;;;12.51;80.92;99050.40;125676;1104;22774;-60
2021/05/14 07:33:22;;;;;;;4.50;0.90;;;;;;;12.56;81.01;99058.75;125860;1099;27320;-58
2021/05/14 07:35:51;;;;;;;5.20;0.80;;;;;;;12.59;80.95;99054.15;126049;1100;22770;-59
2021/05/14 07:38:20;;;;;;;4.05;0.90;;;;;;;12.64;80.60;99053.36;125733;1104;22925;-59
2021/05/14 07:40:52;;;;;;;8.33;1.23;;;;;;;12.69;81.24;99050.50;125647;1104;22738;-59
2021/05/14 07:43:21;;;;;;;5.35;0.90;;;;;;;12.75;80.46;99059.61;125631;1099;28422;-59
2021/05/14 07:45:50;;;;;;;4.95;0.93;;;;;;;12.77;80.42;99056.28;125660;1099;28502;-61
2021/05/14 07:48:21;;;;;;;5.10;1.15;;;;;;;12.80;80.05;99063.66;125948;1098;27313;-59
2021/05/14 07:50:59;;;;;;;6.00;0.90;;;;;;;12.81;80.02;99056.75;125699;1104;22749;-60
2021/05/14 07:53:29;;;;;;;6.13;0.83;;;;;;;12.82;79.91;99061.85;125980;1100;27638;-60
2021/05/14 07:56:01;;;;;;;7.53;0.95;;;;;;;12.82;79.84;99063.89;125978;1104;22839;-60
2021/05/14 07:58:31;;;;;;;3.90;0.85;;;;;;;12.80;79.58;99072.82;125980;1100;26209;-59
2021/05/14 08:01:00;;;;;;;3.90;0.90;;;;;;;12.77;79.23;99073.08;125794;1100;22780;-58
2021/05/14 08:03:29;;;;;;;3.05;0.80;;;;;;;12.73;79.61;99076.17;125825;1104;23053;-60
2021/05/14 08:05:59;;;;;;;6.03;1.00;;;;;;;12.72;79.83;99077.47;126227;1104;22758;-59
2021/05/14 08:08:38;;;;;;;2.73;0.87;;;;;;;12.73;79.77;99075.41;126130;1099;26289;-60
2021/05/14 08:11:08;;;;;;;4.33;0.90;;;;;;;12.75;80.04;99078.45;125884;1099;25848;-60
2021/05/14 08:13:37;;;;;;;7.70;0.80;;;;;;;12.79;79.84;99084.52;125814;1104;24544;-58
2021/05/14 08:16:06;;;;;;;8.25;0.80;;;;;;;12.84;79.76;99086.53;125712;1104;22815;-58
2021/05/14 08:18:35;;;;;;;2.97;0.90;;;;;;;12.86;79.74;99086.77;125891;1104;22760;-60
2021/05/14 08:21:05;;;;;;;3.35;1.00;;;;;;;12.90;79.48;99087.23;125734;1104;22785;-60
2021/05/14 08:23:34;;;;;;;4.35;1.00;;;;;;;12.92;79.63;99090.28;125844;1099;27323;-58
2021/05/14 08:26:04;;;;;;;7.87;1.70;;;;;;;12.93;79.49;99086.20;125742;1104;22771;-58
2021/05/14 08:28:34;;;;;;;7.90;1.43;;;;;;;12.90;79.44;99090.80;125923;1104;22760;-60
2021/05/14 08:31:03;;;;;;;5.90;1.48;;;;;;;12.89;79.45;99086.47;125911;1104;22777;-60
2021/05/14 08:33:34;;;;;;;5.55;1.50;;;;;;;12.87;79.41;99096.67;126061;1104;22774;-60
2021/05/14 08:36:04;;;;;;;6.65;1.70;;;;;;;12.85;79.23;99096.44;125770;1099;23462;-59
2021/05/14 08:38:35;;;;;;;5.53;1.33;;;;;;;12.84;79.24;99098.50;125904;1104;22841;-58
2021/05/14 08:41:08;;;;;;;5.60;1.40;;;;;;;12.84;78.72;99100.53;126035;1104;22782;-59
2021/05/14 08:43:37;;;;;;;11.55;2.05;;;;;;;12.81;78.81;99102.33;125969;1104;22780;-58
2021/05/14 08:46:07;;;;;;;8.60;1.65;;;;;;;12.82;78.79;99103.86;125807;1099;25710;-58
2021/05/14 08:48:40;;;;;;;6.73;1.28;;;;;;;12.82;78.90;99103.09;125851;1104;22760;-60
2021/05/14 08:51:13;;;;;;;6.05;1.55;;;;;;;12.82;78.86;99120.67;125797;1099;22753;-60
2021/05/14 08:53:44;;;;;;;4.65;1.20;;;;;;;;;;125749;1104;22923;-61
2021/05/14 08:56:13;;;;;;;6.85;1.40;;;;;;;12.83;79.05;99115.80;126246;1099;27024;-59
2021/05/14 08:58:41;;;;;;;4.70;1.30;;;;;;;12.82;78.96;99117.10;125750;1098;24453;-60
2021/05/14 09:01:11;;;;;;;7.57;1.40;;;;;;;12.85;79.10;99119.61;125866;1104;24658;-58
2021/05/14 09:04:01;;;;;;;5.13;1.30;;;;;;;12.84;79.13;99125.74;125832;1104;22777;-57
2021/05/14 09:06:32;;;;;;;4.75;1.13;;;;;;;12.80;79.12;99133.67;126038;1099;27116;-58
2021/05/14 09:09:04;;;;;;;5.80;1.50;;;;;;;12.79;79.19;99134.94;126022;1100;22750;-58
2021/05/14 09:11:44;;;;;;;7.15;1.60;;;;;;;12.78;78.82;99136.23;125816;1100;23010;-59
2021/05/14 09:14:34;;;;;;;6.45;1.30;;;;;;;12.77;78.70;99137.49;125843;1100;22755;-60
2021/05/14 09:17:15;;;;;;;4.90;1.18;;;;;;;12.79;78.84;99135.70;125963;1104;22764;-58
2021/05/14 09:19:46;;;;;;;3.57;1.10;;;;;;;12.82;78.39;99136.70;125876;1099;26331;-60
2021/05/14 09:22:17;;;;;;;5.50;1.10;;;;;;;12.83;78.67;99141.78;125798;1104;24451;-60
2021/05/14 09:24:49;;;;;;;4.45;1.00;;;;;;;12.86;78.69;99145.59;125510;1104;22739;-59
2021/05/14 09:27:30;;;;;;;3.10;0.90;;;;;;;12.90;78.67;99137.66;125642;1104;22828;-60
2021/05/14 09:30:01;;;;;;;4.45;1.00;;;;;;;12.93;78.48;99145.03;125659;1099;26354;-58
2021/05/14 09:32:32;;;;;;;4.60;0.90;;;;;;;12.95;78.35;99143.20;125769;1104;22844;-58
2021/05/14 09:35:03;;;;;;;4.77;0.97;;;;;;;12.94;78.39;99158.52;125602;1099;26027;-58
2021/05/14 09:37:33;;;;;;;3.85;1.00;;;;;;;12.93;78.01;99147.83;125543;1104;22777;-57
2021/05/14 09:40:18;;;;;;;7.25;1.38;;;;;;;12.91;77.91;99156.73;125538;1100;22748;-58
2021/05/14 09:42:50;;;;;;;7.47;1.70;;;;;;;12.93;78.44;99159.78;125500;1104;22793;-57
2021/05/14 09:45:23;;;;;;;4.53;1.10;;;;;;;12.96;78.07;99155.95;125486;1104;22770;-59
2021/05/14 09:48:14;;;;;;;3.80;1.10;;;;;;;13.01;77.83;99151.59;125660;1104;23005;-58
2021/05/14 09:50:44;;;;;;;6.50;1.10;;;;;;;13.05;77.50;99168.13;125411;1105;22771;-57
2021/05/14 09:53:14;;;;;;;4.50;1.27;;;;;;;13.06;77.46;99164.80;125714;1104;22875;-61
2021/05/14 09:55:49;;;;;;;8.40;1.30;;;;;;;13.09;77.80;99163.00;125725;1104;22737;-58
2021/05/14 09:58:21;;;;;;;3.50;1.10;;;;;;;13.08;77.62;99162.23;125543;1104;22819;-59
2021/05/14 10:00:51;;;;;;;7.05;1.50;;;;;;;13.06;77.38;99167.60;125607;1104;22774;-57
2021/05/14 10:03:25;;;;;;;6.63;1.33;;;;;;;13.03;77.63;99169.38;125489;1105;22750;-57
2021/05/14 10:05:58;;;;;;;8.40;1.57;;;;;;;13.01;77.72;99176.80;125586;1104;23368;-58
2021/05/14 10:08:32;;;;;;;6.73;1.63;;;;;;;12.98;77.71;99167.39;125534;1104;22767;-58
2021/05/14 10:11:03;;;;;;;8.60;1.55;;;;;;;13.01;77.52;99171.20;125842;1099;26574;-59
2021/05/14 10:13:33;;;;;;;4.30;1.40;;;;;;;13.12;77.70;99173.92;125506;1104;22878;-58
2021/05/14 10:16:03;;;;;;;10.25;1.53;;;;;;;13.23;77.86;99178.67;125866;1104;22822;-57
2021/05/14 10:18:35;;;;;;;6.87;1.37;;;;;;;13.29;77.24;99182.19;125862;1104;22780;-61
2021/05/14 10:21:11;;;;;;;7.05;1.75;;;;;;;13.32;77.02;99183.95;125978;1104;22741;-59
2021/05/14 10:23:43;;;;;;;7.80;1.80;;;;;;;13.33;77.34;99179.86;125812;1100;22780;-60
2021/05/14 10:26:14;;;;;;;5.03;1.50;;;;;;;13.34;77.17;99182.16;125661;1104;22822;-60
2021/05/14 10:28:46;;;;;;;7.27;2.23;;;;;;;13.30;76.17;99184.48;125660;1099;27185;-58
2021/05/14 10:31:21;;;;;;;11.33;1.90;;;;;;;13.30;76.68;99184.48;125845;1104;22813;-60
2021/05/14 10:33:54;;;;;;;8.00;2.20;;;;;;;13.35;76.70;99194.88;125768;1104;22754;-60
2021/05/14 10:36:49;;;;;;;4.85;1.50;;;;;;;13.41;76.38;99189.97;126036;1104;22749;-59
2021/05/14 10:39:26;;;;;;;6.60;1.70;;;;;;;13.48;76.89;99189.41;125653;1100;25841;-59
2021/05/14 10:42:02;;;;;;;8.03;1.60;;;;;;;13.53;76.63;99194.19;126165;1104;25436;-58
2021/05/14 10:44:50;;;;;;;7.83;1.90;;;;;;;13.56;76.63;99195.19;126218;1099;22823;-60
2021/05/14 10:47:47;;;;;;;7.30;1.90;;;;;;;13.55;75.97;99197.23;125919;1099;27148;-59
2021/05/14 10:50:37;;;;;;;7.80;2.03;;;;;;;13.52;75.71;99206.70;125826;1104;23533;-60
2021/05/14 10:53:29;;;;;;;5.55;1.93;;;;;;;13.45;75.70;99209.33;125965;1100;26605;-59
2021/05/14 10:56:33;;;;;;;7.05;2.30;;;;;;;13.35;75.42;99211.69;125816;1104;23640;-59
2021/05/14 10:59:10;;;;;;;7.55;2.15;;;;;;;13.24;75.72;99213.84;126064;1104;24443;-59
2021/05/14 11:01:41;;;;;;;9.60;3.10;;;;;;;13.20;76.04;99210.56;125839;1104;22763;-59
2021/05/14 11:04:41;;;;;;;10.15;3.00;;;;;;;13.21;76.38;99212.06;125797;1104;23252;-59
2021/05/14 11:07:39;;;;;;;;;;;;;;;13.25;76.03;99221.72;125880;1100;26216;-58
2021/05/14 11:10:34;;;;;;;10.67;3.57;;;;;;;13.28;75.98;99220.69;125388;1107;21487;-59
2021/05/14 11:13:38;;;;;;;8.50;3.10;;;;;;;13.30;75.53;99228.56;125322;1108;22790;-60
2021/05/14 11:16:37;;;;;;;8.60;3.07;;;;;;;13.27;75.52;99227.56;125349;1103;22777;-57
2021/05/14 11:19:20;;;;;;;9.03;3.07;;;;;;;13.28;75.64;99225.52;125340;1108;22971;-58
2021/05/14 11:22:10;;;;;;;8.90;2.90;;;;;;;13.35;75.54;99231.31;125501;1107;22877;-59
2021/05/14 11:24:45;;;;;;;11.35;3.03;;;;;;;13.45;75.59;99226.16;125278;1108;22822;-60
2021/05/14 11:27:18;;;;;;;7.45;2.80;;;;;;;13.48;74.78;99223.05;125499;1107;23617;-58
2021/05/14 11:29:49;;;;;;;9.13;2.73;;;;;;;13.54;75.03;99232.17;125425;1108;25619;-58
2021/05/14 11:32:37;;;;;;;11.67;3.23;;;;;;;13.58;75.00;99232.64;125370;1108;22831;-58
2021/05/14 11:35:13;;;;;;;6.90;2.47;;;;;;;13.61;74.79;99223.17;125480;1108;22762;-57
2021/05/14 11:37:50;;;;;;;8.37;2.43;;;;;;;13.62;74.69;99229.55;125527;1103;22771;-60
2021/05/14 11:40:22;;;;;;;12.45;3.30;;;;;;;13.62;74.65;99233.11;125406;1103;26350;-58
2021/05/14 11:42:54;;;;;;;8.05;2.65;;;;;;;13.58;74.46;99231.88;125362;1108;25795;-61
2021/05/14 11:45:25;;;;;;;7.63;2.47;;;;;;;13.54;74.58;99228.60;125529;1099;27230;-61